sensor_id;sensor_type;location;lat;lon;timestamp;P1;durP1;ratioP1;P2;durP2;ratioP2
7336;SDS011;54510;42.016;23.098;2024-01-30T00:00:31;4.45;;;2.58;;
7336;SDS011;54510;42.016;23.098;2024-01-30T00:02:56;4.07;;;2.10;;
7336;SDS011;54510;42.016;23.098;2024-01-30T00:05:21;7.82;;;2.50;;
7336;SDS011;54510;42.016;23.098;2024-01-30T00:07:47;7.30;;;3.05;;
7336;SDS011;54510;42.016;23.098;2024-01-30T00:10:12;5.90;;;2.78;;
7336;SDS011;54510;42.016;23.098;2024-01-30T00:12:37;5.80;;;2.97;;
7336;SDS011;54510;42.016;23.098;2024-01-30T00:15:02;8.27;;;2.83;;
7336;SDS011;54510;42.016;23.098;2024-01-30T00:17:29;6.53;;;3.25;;
7336;SDS011;54510;42.016;23.098;2024-01-30T00:19:55;7.35;;;2.40;;
7336;SDS011;54510;42.016;23.098;2024-01-30T00:22:20;5.07;;;1.77;;
7336;SDS011;54510;42.016;23.098;2024-01-30T00:24:45;3.83;;;1.77;;
7336;SDS011;54510;42.016;23.098;2024-01-30T00:27:11;3.30;;;1.90;;
7336;SDS011;54510;42.016;23.098;2024-01-30T00:29:36;4.30;;;1.92;;
7336;SDS011;54510;42.016;23.098;2024-01-30T00:32:01;4.55;;;2.08;;
7336;SDS011;54510;42.016;23.098;2024-01-30T00:34:26;3.20;;;2.03;;
7336;SDS011;54510;42.016;23.098;2024-01-30T00:36:52;3.38;;;2.03;;
7336;SDS011;54510;42.016;23.098;2024-01-30T00:39:17;2.42;;;1.40;;
7336;SDS011;54510;42.016;23.098;2024-01-30T00:41:44;4.10;;;1.58;;
7336;SDS011;54510;42.016;23.098;2024-01-30T00:44:09;3.58;;;1.75;;
7336;SDS011;54510;42.016;23.098;2024-01-30T00:46:35;3.40;;;1.58;;
7336;SDS011;54510;42.016;23.098;2024-01-30T00:49:00;4.72;;;2.20;;
7336;SDS011;54510;42.016;23.098;2024-01-30T00:51:25;7.00;;;3.33;;
7336;SDS011;54510;42.016;23.098;2024-01-30T00:53:50;8.60;;;3.60;;
7336;SDS011;54510;42.016;23.098;2024-01-30T00:56:16;9.55;;;3.65;;
7336;SDS011;54510;42.016;23.098;2024-01-30T00:58:43;7.68;;;4.07;;
7336;SDS011;54510;42.016;23.098;2024-01-30T01:01:08;6.68;;;2.85;;
7336;SDS011;54510;42.016;23.098;2024-01-30T01:03:33;6.00;;;2.65;;
7336;SDS011;54510;42.016;23.098;2024-01-30T01:05:59;3.90;;;2.33;;
7336;SDS011;54510;42.016;23.098;2024-01-30T01:08:24;3.28;;;2.05;;
7336;SDS011;54510;42.016;23.098;2024-01-30T01:10:50;2.05;;;1.42;;
7336;SDS011;54510;42.016;23.098;2024-01-30T01:13:15;2.72;;;1.38;;
7336;SDS011;54510;42.016;23.098;2024-01-30T01:15:40;2.25;;;1.40;;
7336;SDS011;54510;42.016;23.098;2024-01-30T01:18:06;2.72;;;1.92;;
7336;SDS011;54510;42.016;23.098;2024-01-30T01:20:31;3.63;;;1.40;;
7336;SDS011;54510;42.016;23.098;2024-01-30T01:22:56;2.70;;;1.67;;
7336;SDS011;54510;42.016;23.098;2024-01-30T01:25:21;2.58;;;1.55;;
7336;SDS011;54510;42.016;23.098;2024-01-30T01:27:47;2.75;;;1.45;;
7336;SDS011;54510;42.016;23.098;2024-01-30T01:30:16;2.13;;;1.38;;
7336;SDS011;54510;42.016;23.098;2024-01-30T01:32:46;4.90;;;2.20;;
7336;SDS011;54510;42.016;23.098;2024-01-30T01:35:15;3.10;;;1.65;;
7336;SDS011;54510;42.016;23.098;2024-01-30T01:37:41;2.65;;;1.50;;
7336;SDS011;54510;42.016;23.098;2024-01-30T01:40:06;2.47;;;0.98;;
7336;SDS011;54510;42.016;23.098;2024-01-30T01:42:32;3.30;;;1.55;;
7336;SDS011;54510;42.016;23.098;2024-01-30T01:44:57;2.50;;;1.27;;
7336;SDS011;54510;42.016;23.098;2024-01-30T01:47:22;2.75;;;1.40;;
7336;SDS011;54510;42.016;23.098;2024-01-30T01:49:48;2.08;;;1.10;;
7336;SDS011;54510;42.016;23.098;2024-01-30T01:52:13;1.88;;;1.17;;
7336;SDS011;54510;42.016;23.098;2024-01-30T01:54:38;2.58;;;1.17;;
7336;SDS011;54510;42.016;23.098;2024-01-30T01:57:03;2.78;;;1.40;;
7336;SDS011;54510;42.016;23.098;2024-01-30T01:59:29;3.60;;;1.30;;
7336;SDS011;54510;42.016;23.098;2024-01-30T02:01:54;4.47;;;1.80;;
7336;SDS011;54510;42.016;23.098;2024-01-30T02:04:20;4.30;;;1.90;;
7336;SDS011;54510;42.016;23.098;2024-01-30T02:06:46;2.42;;;1.35;;
7336;SDS011;54510;42.016;23.098;2024-01-30T02:09:11;5.97;;;2.13;;
7336;SDS011;54510;42.016;23.098;2024-01-30T02:11:36;3.30;;;2.03;;
7336;SDS011;54510;42.016;23.098;2024-01-30T02:14:02;4.85;;;2.13;;
7336;SDS011;54510;42.016;23.098;2024-01-30T02:16:28;4.97;;;1.52;;
7336;SDS011;54510;42.016;23.098;2024-01-30T02:18:53;2.38;;;1.75;;
7336;SDS011;54510;42.016;23.098;2024-01-30T02:21:18;2.88;;;1.88;;
7336;SDS011;54510;42.016;23.098;2024-01-30T02:23:44;8.25;;;1.52;;
7336;SDS011;54510;42.016;23.098;2024-01-30T02:26:11;2.38;;;1.20;;
7336;SDS011;54510;42.016;23.098;2024-01-30T02:28:37;4.90;;;1.60;;
7336;SDS011;54510;42.016;23.098;2024-01-30T02:31:02;3.78;;;1.23;;
7336;SDS011;54510;42.016;23.098;2024-01-30T02:33:27;2.78;;;1.30;;
7336;SDS011;54510;42.016;23.098;2024-01-30T02:35:52;2.35;;;1.33;;
7336;SDS011;54510;42.016;23.098;2024-01-30T02:38:18;2.90;;;1.23;;
7336;SDS011;54510;42.016;23.098;2024-01-30T02:40:43;3.17;;;1.45;;
7336;SDS011;54510;42.016;23.098;2024-01-30T02:43:08;3.13;;;1.55;;
7336;SDS011;54510;42.016;23.098;2024-01-30T02:45:34;4.35;;;1.90;;
7336;SDS011;54510;42.016;23.098;2024-01-30T02:47:59;4.43;;;1.85;;
7336;SDS011;54510;42.016;23.098;2024-01-30T02:50:24;5.57;;;2.75;;
7336;SDS011;54510;42.016;23.098;2024-01-30T02:52:49;6.03;;;3.95;;
7336;SDS011;54510;42.016;23.098;2024-01-30T02:55:15;8.98;;;2.50;;
7336;SDS011;54510;42.016;23.098;2024-01-30T02:57:42;6.07;;;3.10;;
7336;SDS011;54510;42.016;23.098;2024-01-30T03:00:08;16.23;;;6.82;;
7336;SDS011;54510;42.016;23.098;2024-01-30T03:02:34;15.73;;;6.38;;
7336;SDS011;54510;42.016;23.098;2024-01-30T03:04:59;10.43;;;5.13;;
7336;SDS011;54510;42.016;23.098;2024-01-30T03:07:25;6.35;;;3.03;;
7336;SDS011;54510;42.016;23.098;2024-01-30T03:09:50;4.20;;;2.45;;
7336;SDS011;54510;42.016;23.098;2024-01-30T03:12:15;8.35;;;3.75;;
7336;SDS011;54510;42.016;23.098;2024-01-30T03:14:40;7.35;;;3.33;;
7336;SDS011;54510;42.016;23.098;2024-01-30T03:17:06;8.13;;;3.60;;
7336;SDS011;54510;42.016;23.098;2024-01-30T03:19:31;14.23;;;5.05;;
7336;SDS011;54510;42.016;23.098;2024-01-30T03:21:56;12.35;;;4.35;;
7336;SDS011;54510;42.016;23.098;2024-01-30T03:24:22;11.05;;;4.40;;
7336;SDS011;54510;42.016;23.098;2024-01-30T03:26:47;9.32;;;3.47;;
7336;SDS011;54510;42.016;23.098;2024-01-30T03:29:12;8.30;;;4.05;;
7336;SDS011;54510;42.016;23.098;2024-01-30T03:31:38;7.68;;;3.22;;
7336;SDS011;54510;42.016;23.098;2024-01-30T03:34:03;5.18;;;2.55;;
7336;SDS011;54510;42.016;23.098;2024-01-30T03:36:29;4.85;;;2.70;;
7336;SDS011;54510;42.016;23.098;2024-01-30T03:38:57;4.95;;;2.15;;
7336;SDS011;54510;42.016;23.098;2024-01-30T03:41:23;11.52;;;3.10;;
7336;SDS011;54510;42.016;23.098;2024-01-30T03:43:48;5.07;;;3.17;;
7336;SDS011;54510;42.016;23.098;2024-01-30T03:46:13;15.57;;;3.55;;
7336;SDS011;54510;42.016;23.098;2024-01-30T03:48:39;9.55;;;3.15;;
7336;SDS011;54510;42.016;23.098;2024-01-30T03:51:04;8.05;;;4.10;;
7336;SDS011;54510;42.016;23.098;2024-01-30T03:53:29;7.07;;;3.53;;
7336;SDS011;54510;42.016;23.098;2024-01-30T03:55:55;9.05;;;3.88;;
7336;SDS011;54510;42.016;23.098;2024-01-30T03:58:20;4.97;;;2.50;;
7336;SDS011;54510;42.016;23.098;2024-01-30T04:00:45;7.45;;;3.25;;
7336;SDS011;54510;42.016;23.098;2024-01-30T04:03:10;6.03;;;3.80;;
7336;SDS011;54510;42.016;23.098;2024-01-30T04:05:35;6.57;;;3.92;;
7336;SDS011;54510;42.016;23.098;2024-01-30T04:08:01;8.15;;;4.50;;
7336;SDS011;54510;42.016;23.098;2024-01-30T04:10:26;8.35;;;3.72;;
7336;SDS011;54510;42.016;23.098;2024-01-30T04:12:51;7.45;;;3.03;;
7336;SDS011;54510;42.016;23.098;2024-01-30T04:15:17;10.48;;;5.00;;
7336;SDS011;54510;42.016;23.098;2024-01-30T04:17:42;7.50;;;3.28;;
7336;SDS011;54510;42.016;23.098;2024-01-30T04:20:08;5.45;;;3.28;;
7336;SDS011;54510;42.016;23.098;2024-01-30T04:22:33;7.38;;;2.45;;
7336;SDS011;54510;42.016;23.098;2024-01-30T04:24:58;7.65;;;3.22;;
7336;SDS011;54510;42.016;23.098;2024-01-30T04:27:23;6.28;;;2.92;;
7336;SDS011;54510;42.016;23.098;2024-01-30T04:29:49;3.83;;;2.08;;
7336;SDS011;54510;42.016;23.098;2024-01-30T04:32:14;8.88;;;2.92;;
7336;SDS011;54510;42.016;23.098;2024-01-30T04:34:39;4.75;;;3.22;;
7336;SDS011;54510;42.016;23.098;2024-01-30T04:37:04;4.78;;;2.30;;
7336;SDS011;54510;42.016;23.098;2024-01-30T04:39:30;10.18;;;3.88;;
7336;SDS011;54510;42.016;23.098;2024-01-30T04:41:55;6.72;;;3.28;;
7336;SDS011;54510;42.016;23.098;2024-01-30T04:44:20;8.07;;;3.03;;
7336;SDS011;54510;42.016;23.098;2024-01-30T04:46:45;6.75;;;2.72;;
7336;SDS011;54510;42.016;23.098;2024-01-30T04:49:11;6.40;;;3.10;;
7336;SDS011;54510;42.016;23.098;2024-01-30T04:51:36;6.57;;;2.88;;
7336;SDS011;54510;42.016;23.098;2024-01-30T04:54:01;4.50;;;2.20;;
7336;SDS011;54510;42.016;23.098;2024-01-30T04:56:26;4.53;;;2.47;;
7336;SDS011;54510;42.016;23.098;2024-01-30T04:58:52;4.05;;;2.50;;
7336;SDS011;54510;42.016;23.098;2024-01-30T05:01:17;7.93;;;2.40;;
7336;SDS011;54510;42.016;23.098;2024-01-30T05:03:42;4.95;;;2.60;;
7336;SDS011;54510;42.016;23.098;2024-01-30T05:06:08;5.55;;;2.45;;
7336;SDS011;54510;42.016;23.098;2024-01-30T05:08:33;8.20;;;2.92;;
7336;SDS011;54510;42.016;23.098;2024-01-30T05:11:00;4.60;;;2.75;;
7336;SDS011;54510;42.016;23.098;2024-01-30T05:13:26;11.20;;;3.35;;
7336;SDS011;54510;42.016;23.098;2024-01-30T05:15:52;9.18;;;3.55;;
7336;SDS011;54510;42.016;23.098;2024-01-30T05:18:17;6.00;;;3.15;;
7336;SDS011;54510;42.016;23.098;2024-01-30T05:20:42;9.93;;;3.80;;
7336;SDS011;54510;42.016;23.098;2024-01-30T05:23:07;11.30;;;4.72;;
7336;SDS011;54510;42.016;23.098;2024-01-30T05:25:33;8.98;;;4.70;;
7336;SDS011;54510;42.016;23.098;2024-01-30T05:27:58;12.15;;;4.38;;
7336;SDS011;54510;42.016;23.098;2024-01-30T05:30:23;8.10;;;3.53;;
7336;SDS011;54510;42.016;23.098;2024-01-30T05:32:49;7.93;;;4.60;;
7336;SDS011;54510;42.016;23.098;2024-01-30T05:35:14;11.98;;;5.45;;
7336;SDS011;54510;42.016;23.098;2024-01-30T05:37:39;11.32;;;4.70;;
7336;SDS011;54510;42.016;23.098;2024-01-30T05:40:05;8.82;;;3.72;;
7336;SDS011;54510;42.016;23.098;2024-01-30T05:42:30;12.25;;;5.13;;
7336;SDS011;54510;42.016;23.098;2024-01-30T05:44:56;15.48;;;7.07;;
7336;SDS011;54510;42.016;23.098;2024-01-30T05:47:22;9.93;;;4.70;;
7336;SDS011;54510;42.016;23.098;2024-01-30T05:49:47;12.75;;;6.65;;
7336;SDS011;54510;42.016;23.098;2024-01-30T05:52:12;14.32;;;5.68;;
7336;SDS011;54510;42.016;23.098;2024-01-30T05:54:38;9.48;;;5.18;;
7336;SDS011;54510;42.016;23.098;2024-01-30T05:57:03;9.55;;;4.93;;
7336;SDS011;54510;42.016;23.098;2024-01-30T05:59:28;8.45;;;4.03;;
7336;SDS011;54510;42.016;23.098;2024-01-30T06:01:54;8.25;;;3.53;;
7336;SDS011;54510;42.016;23.098;2024-01-30T06:04:19;5.65;;;3.42;;
7336;SDS011;54510;42.016;23.098;2024-01-30T06:06:44;11.23;;;3.60;;
7336;SDS011;54510;42.016;23.098;2024-01-30T06:09:09;6.32;;;4.03;;
7336;SDS011;54510;42.016;23.098;2024-01-30T06:11:34;5.47;;;3.60;;
7336;SDS011;54510;42.016;23.098;2024-01-30T06:14:00;7.95;;;3.60;;
7336;SDS011;54510;42.016;23.098;2024-01-30T06:16:25;5.32;;;3.08;;
7336;SDS011;54510;42.016;23.098;2024-01-30T06:18:54;7.47;;;3.67;;
7336;SDS011;54510;42.016;23.098;2024-01-30T06:21:20;5.82;;;3.17;;
7336;SDS011;54510;42.016;23.098;2024-01-30T06:23:45;7.45;;;3.65;;
7336;SDS011;54510;42.016;23.098;2024-01-30T06:26:10;8.07;;;4.25;;
7336;SDS011;54510;42.016;23.098;2024-01-30T06:28:35;24.55;;;11.70;;
7336;SDS011;54510;42.016;23.098;2024-01-30T06:31:01;30.88;;;14.73;;
7336;SDS011;54510;42.016;23.098;2024-01-30T06:33:26;13.50;;;7.45;;
7336;SDS011;54510;42.016;23.098;2024-01-30T06:35:51;9.05;;;4.15;;
7336;SDS011;54510;42.016;23.098;2024-01-30T06:38:17;7.32;;;4.72;;
7336;SDS011;54510;42.016;23.098;2024-01-30T06:40:42;9.23;;;5.68;;
7336;SDS011;54510;42.016;23.098;2024-01-30T06:43:07;14.48;;;6.63;;
7336;SDS011;54510;42.016;23.098;2024-01-30T06:45:33;12.57;;;5.43;;
7336;SDS011;54510;42.016;23.098;2024-01-30T06:47:59;11.95;;;5.13;;
7336;SDS011;54510;42.016;23.098;2024-01-30T06:50:24;11.50;;;7.18;;
7336;SDS011;54510;42.016;23.098;2024-01-30T06:52:49;7.93;;;5.10;;
7336;SDS011;54510;42.016;23.098;2024-01-30T06:55:14;8.30;;;4.30;;
7336;SDS011;54510;42.016;23.098;2024-01-30T06:57:40;10.93;;;5.50;;
7336;SDS011;54510;42.016;23.098;2024-01-30T07:00:05;11.57;;;4.60;;
7336;SDS011;54510;42.016;23.098;2024-01-30T07:02:31;13.55;;;5.90;;
7336;SDS011;54510;42.016;23.098;2024-01-30T07:04:56;13.63;;;5.90;;
7336;SDS011;54510;42.016;23.098;2024-01-30T07:07:21;12.45;;;5.00;;
7336;SDS011;54510;42.016;23.098;2024-01-30T07:09:47;14.13;;;6.38;;
7336;SDS011;54510;42.016;23.098;2024-01-30T07:12:14;15.48;;;7.05;;
7336;SDS011;54510;42.016;23.098;2024-01-30T07:14:40;13.65;;;6.60;;
7336;SDS011;54510;42.016;23.098;2024-01-30T07:17:05;15.80;;;6.88;;
7336;SDS011;54510;42.016;23.098;2024-01-30T07:19:31;12.10;;;6.50;;
7336;SDS011;54510;42.016;23.098;2024-01-30T07:21:56;11.75;;;5.43;;
7336;SDS011;54510;42.016;23.098;2024-01-30T07:24:21;11.13;;;5.78;;
7336;SDS011;54510;42.016;23.098;2024-01-30T07:26:46;16.08;;;7.57;;
7336;SDS011;54510;42.016;23.098;2024-01-30T07:29:12;14.65;;;6.97;;
7336;SDS011;54510;42.016;23.098;2024-01-30T07:31:37;13.90;;;7.13;;
7336;SDS011;54510;42.016;23.098;2024-01-30T07:34:02;20.33;;;7.50;;
7336;SDS011;54510;42.016;23.098;2024-01-30T07:36:27;19.58;;;8.88;;
7336;SDS011;54510;42.016;23.098;2024-01-30T07:38:53;21.13;;;9.68;;
7336;SDS011;54510;42.016;23.098;2024-01-30T07:41:19;35.03;;;16.20;;
7336;SDS011;54510;42.016;23.098;2024-01-30T07:43:45;28.20;;;13.75;;
7336;SDS011;54510;42.016;23.098;2024-01-30T07:46:10;28.75;;;12.13;;
7336;SDS011;54510;42.016;23.098;2024-01-30T07:48:35;28.50;;;13.70;;
7336;SDS011;54510;42.016;23.098;2024-01-30T07:51:00;44.33;;;18.75;;
7336;SDS011;54510;42.016;23.098;2024-01-30T07:53:26;32.13;;;14.77;;
7336;SDS011;54510;42.016;23.098;2024-01-30T07:55:51;34.35;;;15.93;;
7336;SDS011;54510;42.016;23.098;2024-01-30T07:58:17;36.55;;;16.23;;
7336;SDS011;54510;42.016;23.098;2024-01-30T08:00:42;21.85;;;11.35;;
7336;SDS011;54510;42.016;23.098;2024-01-30T08:03:07;20.58;;;10.70;;
7336;SDS011;54510;42.016;23.098;2024-01-30T08:05:33;10.88;;;5.30;;
7336;SDS011;54510;42.016;23.098;2024-01-30T08:07:58;11.63;;;5.75;;
7336;SDS011;54510;42.016;23.098;2024-01-30T08:10:23;5.30;;;3.10;;
7336;SDS011;54510;42.016;23.098;2024-01-30T08:12:48;15.98;;;3.63;;
7336;SDS011;54510;42.016;23.098;2024-01-30T08:15:14;6.15;;;3.13;;
7336;SDS011;54510;42.016;23.098;2024-01-30T08:17:39;5.38;;;2.95;;
7336;SDS011;54510;42.016;23.098;2024-01-30T08:20:04;9.63;;;3.40;;
7336;SDS011;54510;42.016;23.098;2024-01-30T08:22:30;5.07;;;2.90;;
7336;SDS011;54510;42.016;23.098;2024-01-30T08:24:55;7.60;;;3.53;;
7336;SDS011;54510;42.016;23.098;2024-01-30T08:27:20;8.27;;;4.65;;
7336;SDS011;54510;42.016;23.098;2024-01-30T08:29:46;9.93;;;4.35;;
7336;SDS011;54510;42.016;23.098;2024-01-30T08:32:11;9.77;;;4.53;;
7336;SDS011;54510;42.016;23.098;2024-01-30T08:34:36;7.25;;;3.97;;
7336;SDS011;54510;42.016;23.098;2024-01-30T08:37:02;8.48;;;4.20;;
7336;SDS011;54510;42.016;23.098;2024-01-30T08:39:28;13.43;;;6.57;;
7336;SDS011;54510;42.016;23.098;2024-01-30T08:41:53;7.53;;;4.18;;
7336;SDS011;54510;42.016;23.098;2024-01-30T08:44:18;10.35;;;5.50;;
7336;SDS011;54510;42.016;23.098;2024-01-30T08:46:44;17.35;;;6.68;;
7336;SDS011;54510;42.016;23.098;2024-01-30T08:49:10;17.75;;;6.55;;
7336;SDS011;54510;42.016;23.098;2024-01-30T08:51:35;7.75;;;3.75;;
7336;SDS011;54510;42.016;23.098;2024-01-30T08:54:01;5.13;;;2.83;;
7336;SDS011;54510;42.016;23.098;2024-01-30T08:56:26;4.93;;;1.58;;
7336;SDS011;54510;42.016;23.098;2024-01-30T08:58:51;6.18;;;3.75;;
7336;SDS011;54510;42.016;23.098;2024-01-30T09:01:17;7.20;;;3.28;;
7336;SDS011;54510;42.016;23.098;2024-01-30T09:03:42;6.40;;;3.55;;
7336;SDS011;54510;42.016;23.098;2024-01-30T09:06:10;5.80;;;2.08;;
7336;SDS011;54510;42.016;23.098;2024-01-30T09:08:35;4.38;;;2.17;;
7336;SDS011;54510;42.016;23.098;2024-01-30T09:11:01;3.08;;;1.83;;
7336;SDS011;54510;42.016;23.098;2024-01-30T09:13:27;3.85;;;1.73;;
7336;SDS011;54510;42.016;23.098;2024-01-30T09:15:52;6.45;;;3.72;;
7336;SDS011;54510;42.016;23.098;2024-01-30T09:18:18;4.53;;;2.33;;
7336;SDS011;54510;42.016;23.098;2024-01-30T09:20:43;5.05;;;2.10;;
7336;SDS011;54510;42.016;23.098;2024-01-30T09:23:10;3.63;;;2.13;;
7336;SDS011;54510;42.016;23.098;2024-01-30T09:25:35;4.25;;;1.55;;
7336;SDS011;54510;42.016;23.098;2024-01-30T09:28:01;4.63;;;2.00;;
7336;SDS011;54510;42.016;23.098;2024-01-30T09:30:26;3.53;;;1.52;;
7336;SDS011;54510;42.016;23.098;2024-01-30T09:32:51;4.25;;;2.00;;
7336;SDS011;54510;42.016;23.098;2024-01-30T09:35:16;3.33;;;1.55;;
7336;SDS011;54510;42.016;23.098;2024-01-30T09:37:42;3.75;;;1.63;;
7336;SDS011;54510;42.016;23.098;2024-01-30T09:40:07;6.72;;;2.90;;
7336;SDS011;54510;42.016;23.098;2024-01-30T09:42:35;5.03;;;2.65;;
7336;SDS011;54510;42.016;23.098;2024-01-30T09:45:01;5.05;;;2.28;;
7336;SDS011;54510;42.016;23.098;2024-01-30T09:47:27;3.00;;;1.90;;
7336;SDS011;54510;42.016;23.098;2024-01-30T09:49:52;3.97;;;2.38;;
7336;SDS011;54510;42.016;23.098;2024-01-30T09:52:17;3.63;;;1.60;;
7336;SDS011;54510;42.016;23.098;2024-01-30T09:54:43;2.80;;;1.10;;
7336;SDS011;54510;42.016;23.098;2024-01-30T09:57:09;2.25;;;1.23;;
7336;SDS011;54510;42.016;23.098;2024-01-30T09:59:36;3.60;;;1.42;;
7336;SDS011;54510;42.016;23.098;2024-01-30T10:02:01;3.50;;;1.75;;
7336;SDS011;54510;42.016;23.098;2024-01-30T10:04:29;4.30;;;1.75;;
7336;SDS011;54510;42.016;23.098;2024-01-30T10:06:54;3.42;;;1.40;;
7336;SDS011;54510;42.016;23.098;2024-01-30T10:09:19;2.13;;;1.15;;
7336;SDS011;54510;42.016;23.098;2024-01-30T10:11:44;2.40;;;1.23;;
7336;SDS011;54510;42.016;23.098;2024-01-30T10:14:10;2.28;;;1.13;;
7336;SDS011;54510;42.016;23.098;2024-01-30T10:16:35;3.17;;;1.10;;
7336;SDS011;54510;42.016;23.098;2024-01-30T10:19:00;2.85;;;1.35;;
7336;SDS011;54510;42.016;23.098;2024-01-30T10:21:27;3.63;;;1.77;;
7336;SDS011;54510;42.016;23.098;2024-01-30T10:23:52;3.35;;;1.70;;
7336;SDS011;54510;42.016;23.098;2024-01-30T10:26:17;2.78;;;1.77;;
7336;SDS011;54510;42.016;23.098;2024-01-30T10:28:43;3.30;;;1.77;;
7336;SDS011;54510;42.016;23.098;2024-01-30T10:31:08;2.30;;;1.10;;
7336;SDS011;54510;42.016;23.098;2024-01-30T10:33:33;2.75;;;1.70;;
7336;SDS011;54510;42.016;23.098;2024-01-30T10:36:03;4.57;;;1.52;;
7336;SDS011;54510;42.016;23.098;2024-01-30T10:38:28;4.97;;;1.98;;
7336;SDS011;54510;42.016;23.098;2024-01-30T10:40:56;11.15;;;6.10;;
7336;SDS011;54510;42.016;23.098;2024-01-30T10:43:21;3.22;;;2.15;;
7336;SDS011;54510;42.016;23.098;2024-01-30T10:45:47;2.85;;;1.33;;
7336;SDS011;54510;42.016;23.098;2024-01-30T10:48:14;6.15;;;1.98;;
7336;SDS011;54510;42.016;23.098;2024-01-30T10:50:41;3.92;;;1.75;;
7336;SDS011;54510;42.016;23.098;2024-01-30T10:53:07;4.40;;;1.75;;
7336;SDS011;54510;42.016;23.098;2024-01-30T10:55:33;2.95;;;1.40;;
7336;SDS011;54510;42.016;23.098;2024-01-30T10:57:59;6.45;;;1.80;;
7336;SDS011;54510;42.016;23.098;2024-01-30T11:00:25;3.55;;;1.98;;
7336;SDS011;54510;42.016;23.098;2024-01-30T11:02:51;3.42;;;1.70;;
7336;SDS011;54510;42.016;23.098;2024-01-30T11:05:23;3.67;;;1.85;;
7336;SDS011;54510;42.016;23.098;2024-01-30T11:07:49;3.92;;;1.98;;
7336;SDS011;54510;42.016;23.098;2024-01-30T11:10:15;3.88;;;1.70;;
7336;SDS011;54510;42.016;23.098;2024-01-30T11:12:40;2.72;;;1.77;;
7336;SDS011;54510;42.016;23.098;2024-01-30T11:17:44;2.78;;;1.60;;
7336;SDS011;54510;42.016;23.098;2024-01-30T11:20:20;3.03;;;1.65;;
7336;SDS011;54510;42.016;23.098;2024-01-30T11:22:46;5.82;;;1.95;;
7336;SDS011;54510;42.016;23.098;2024-01-30T11:25:15;2.53;;;1.30;;
7336;SDS011;54510;42.016;23.098;2024-01-30T11:27:43;5.03;;;1.42;;
7336;SDS011;54510;42.016;23.098;2024-01-30T11:30:09;3.67;;;1.00;;
7336;SDS011;54510;42.016;23.098;2024-01-30T11:32:35;2.63;;;1.20;;
7336;SDS011;54510;42.016;23.098;2024-01-30T11:35:00;1.73;;;1.05;;
7336;SDS011;54510;42.016;23.098;2024-01-30T11:37:28;3.83;;;1.40;;
7336;SDS011;54510;42.016;23.098;2024-01-30T11:39:53;1.73;;;1.17;;
7336;SDS011;54510;42.016;23.098;2024-01-30T11:42:19;2.30;;;1.17;;
7336;SDS011;54510;42.016;23.098;2024-01-30T11:44:47;5.75;;;1.40;;
7336;SDS011;54510;42.016;23.098;2024-01-30T11:47:13;3.38;;;1.55;;
7336;SDS011;54510;42.016;23.098;2024-01-30T11:49:39;2.55;;;1.55;;
7336;SDS011;54510;42.016;23.098;2024-01-30T11:52:04;3.33;;;2.05;;
7336;SDS011;54510;42.016;23.098;2024-01-30T11:54:30;4.15;;;1.90;;
7336;SDS011;54510;42.016;23.098;2024-01-30T11:56:55;5.10;;;2.25;;
7336;SDS011;54510;42.016;23.098;2024-01-30T11:59:20;6.15;;;2.42;;
7336;SDS011;54510;42.016;23.098;2024-01-30T12:01:45;4.05;;;2.00;;
7336;SDS011;54510;42.016;23.098;2024-01-30T12:04:11;2.08;;;1.25;;
7336;SDS011;54510;42.016;23.098;2024-01-30T12:06:36;3.03;;;1.88;;
7336;SDS011;54510;42.016;23.098;2024-01-30T12:09:02;2.47;;;1.88;;
7336;SDS011;54510;42.016;23.098;2024-01-30T12:11:29;2.08;;;1.15;;
7336;SDS011;54510;42.016;23.098;2024-01-30T12:13:55;2.83;;;1.90;;
7336;SDS011;54510;42.016;23.098;2024-01-30T12:16:20;4.65;;;1.42;;
7336;SDS011;54510;42.016;23.098;2024-01-30T12:18:46;3.00;;;1.67;;
7336;SDS011;54510;42.016;23.098;2024-01-30T12:21:11;3.30;;;2.05;;
7336;SDS011;54510;42.016;23.098;2024-01-30T12:23:36;6.05;;;2.60;;
7336;SDS011;54510;42.016;23.098;2024-01-30T12:26:02;1.92;;;1.45;;
7336;SDS011;54510;42.016;23.098;2024-01-30T12:28:28;2.38;;;1.52;;
7336;SDS011;54510;42.016;23.098;2024-01-30T12:30:55;6.13;;;2.33;;
7336;SDS011;54510;42.016;23.098;2024-01-30T12:33:20;4.72;;;2.25;;
7336;SDS011;54510;42.016;23.098;2024-01-30T12:35:46;2.88;;;1.50;;
7336;SDS011;54510;42.016;23.098;2024-01-30T12:38:13;3.70;;;2.10;;
7336;SDS011;54510;42.016;23.098;2024-01-30T12:40:38;4.28;;;2.15;;
7336;SDS011;54510;42.016;23.098;2024-01-30T12:43:04;4.43;;;2.22;;
7336;SDS011;54510;42.016;23.098;2024-01-30T12:45:29;5.18;;;2.22;;
7336;SDS011;54510;42.016;23.098;2024-01-30T12:47:55;5.10;;;2.55;;
7336;SDS011;54510;42.016;23.098;2024-01-30T12:50:20;3.85;;;1.83;;
7336;SDS011;54510;42.016;23.098;2024-01-30T12:52:45;4.50;;;1.98;;
7336;SDS011;54510;42.016;23.098;2024-01-30T12:55:11;2.47;;;1.80;;
7336;SDS011;54510;42.016;23.098;2024-01-30T12:57:36;4.57;;;2.20;;
7336;SDS011;54510;42.016;23.098;2024-01-30T13:00:01;3.15;;;1.85;;
7336;SDS011;54510;42.016;23.098;2024-01-30T13:02:27;5.50;;;2.17;;
7336;SDS011;54510;42.016;23.098;2024-01-30T13:04:59;4.07;;;2.22;;
7336;SDS011;54510;42.016;23.098;2024-01-30T13:07:25;3.00;;;1.50;;
7336;SDS011;54510;42.016;23.098;2024-01-30T13:09:50;4.90;;;2.05;;
7336;SDS011;54510;42.016;23.098;2024-01-30T13:12:15;5.70;;;2.40;;
7336;SDS011;54510;42.016;23.098;2024-01-30T13:14:40;4.00;;;1.95;;
7336;SDS011;54510;42.016;23.098;2024-01-30T13:17:06;3.95;;;2.08;;
7336;SDS011;54510;42.016;23.098;2024-01-30T13:19:31;4.25;;;1.77;;
7336;SDS011;54510;42.016;23.098;2024-01-30T13:21:56;3.08;;;1.77;;
7336;SDS011;54510;42.016;23.098;2024-01-30T13:24:21;2.20;;;1.52;;
7336;SDS011;54510;42.016;23.098;2024-01-30T13:26:47;2.30;;;1.60;;
7336;SDS011;54510;42.016;23.098;2024-01-30T13:29:12;3.35;;;1.77;;
7336;SDS011;54510;42.016;23.098;2024-01-30T13:31:38;2.40;;;1.58;;
7336;SDS011;54510;42.016;23.098;2024-01-30T13:34:04;6.45;;;2.03;;
7336;SDS011;54510;42.016;23.098;2024-01-30T13:36:31;5.05;;;2.33;;
7336;SDS011;54510;42.016;23.098;2024-01-30T13:38:56;4.22;;;2.28;;
7336;SDS011;54510;42.016;23.098;2024-01-30T13:41:21;3.15;;;2.00;;
7336;SDS011;54510;42.016;23.098;2024-01-30T13:43:48;3.90;;;1.98;;
7336;SDS011;54510;42.016;23.098;2024-01-30T13:46:13;4.20;;;2.08;;
7336;SDS011;54510;42.016;23.098;2024-01-30T13:48:39;6.03;;;2.85;;
7336;SDS011;54510;42.016;23.098;2024-01-30T13:51:04;4.28;;;2.13;;
7336;SDS011;54510;42.016;23.098;2024-01-30T13:53:29;3.20;;;2.05;;
7336;SDS011;54510;42.016;23.098;2024-01-30T13:55:55;3.42;;;1.50;;
7336;SDS011;54510;42.016;23.098;2024-01-30T13:58:20;3.83;;;1.80;;
7336;SDS011;54510;42.016;23.098;2024-01-30T14:00:45;4.88;;;2.10;;
7336;SDS011;54510;42.016;23.098;2024-01-30T14:03:10;6.13;;;2.83;;
7336;SDS011;54510;42.016;23.098;2024-01-30T14:05:36;2.80;;;1.83;;
7336;SDS011;54510;42.016;23.098;2024-01-30T14:08:01;8.48;;;2.92;;
7336;SDS011;54510;42.016;23.098;2024-01-30T14:10:26;6.28;;;2.72;;
7336;SDS011;54510;42.016;23.098;2024-01-30T14:12:52;7.22;;;3.30;;
7336;SDS011;54510;42.016;23.098;2024-01-30T14:15:17;5.47;;;2.42;;
7336;SDS011;54510;42.016;23.098;2024-01-30T14:17:46;3.88;;;1.95;;
7336;SDS011;54510;42.016;23.098;2024-01-30T14:20:13;4.28;;;2.05;;
7336;SDS011;54510;42.016;23.098;2024-01-30T14:22:38;3.00;;;1.42;;
7336;SDS011;54510;42.016;23.098;2024-01-30T14:25:04;3.42;;;1.95;;
7336;SDS011;54510;42.016;23.098;2024-01-30T14:27:30;5.63;;;2.58;;
7336;SDS011;54510;42.016;23.098;2024-01-30T14:29:56;5.18;;;2.60;;
7336;SDS011;54510;42.016;23.098;2024-01-30T14:32:21;5.60;;;3.05;;
7336;SDS011;54510;42.016;23.098;2024-01-30T14:34:46;4.07;;;1.75;;
7336;SDS011;54510;42.016;23.098;2024-01-30T14:37:11;8.45;;;3.47;;